createdAt,value
2022-10-04T00:01:10.846Z,91.07
2022-10-04T00:03:46.147Z,91.38
2022-10-04T00:06:19.831Z,91.62
2022-10-04T00:08:52.911Z,91.38
2022-10-04T00:11:27.573Z,92.29
2022-10-04T00:14:00.141Z,93.17
2022-10-04T00:16:35.492Z,92.60
2022-10-04T00:19:26.482Z,92.79
2022-10-04T00:22:17.359Z,93.45
2022-10-04T00:25:23.163Z,92.71
2022-10-04T00:28:31.350Z,92.82
2022-10-04T00:31:19.686Z,93.24
2022-10-04T00:33:54.594Z,93.75
2022-10-04T00:36:41.754Z,93.31
2022-10-04T00:39:39.174Z,93.56
2022-10-04T00:42:21.724Z,93.70
2022-10-04T00:44:56.351Z,93.95
2022-10-04T00:47:32.026Z,94.66
2022-10-04T00:50:17.078Z,94.29
2022-10-04T00:52:51.707Z,94.96
2022-10-04T00:55:28.977Z,94.43
2022-10-04T00:58:02.414Z,94.08
2022-10-04T01:00:33.686Z,93.59
2022-10-04T01:03:08.050Z,93.84
2022-10-04T01:05:44.252Z,93.57
2022-10-04T01:08:16.553Z,93.62
2022-10-04T01:10:50.323Z,93.74
2022-10-04T01:13:26.627Z,93.75
2022-10-04T01:16:02.702Z,93.94
2022-10-04T01:18:34.911Z,93.90
2022-10-04T01:21:11.608Z,93.76
2022-10-04T01:23:46.210Z,94.35
2022-10-04T01:26:43.760Z,94.79
2022-10-04T01:29:16.916Z,95.95
2022-10-04T01:31:48.769Z,95.78
2022-10-04T01:34:20.703Z,95.96
2022-10-04T01:36:52.637Z,96.79
2022-10-04T01:39:27.615Z,96.70
2022-10-04T01:42:03.204Z,96.64
2022-10-04T01:44:39.714Z,96.36
2022-10-04T01:47:16.066Z,95.76
2022-10-04T01:49:48.583Z,95.79
2022-10-04T01:52:23.082Z,95.54
2022-10-04T01:55:03.596Z,95.05
2022-10-04T01:57:40.092Z,95.01
2022-10-04T02:00:14.353Z,94.98
2022-10-04T02:02:51.655Z,95.13
2022-10-04T02:05:29.894Z,95.19
2022-10-04T02:08:05.045Z,94.74
2022-10-04T02:10:43.412Z,94.83
2022-10-04T02:13:18.616Z,95.42
2022-10-04T02:15:49.435Z,95.01
2022-10-04T02:18:21.822Z,94.99
2022-10-04T02:20:53.967Z,95.38
2022-10-04T02:23:25.371Z,95.46
2022-10-04T02:25:57.951Z,95.57
2022-10-04T02:28:27.971Z,96.96
2022-10-04T02:31:10.384Z,97.88
2022-10-04T02:33:44.181Z,98.24
2022-10-04T02:36:14.649Z,99.82
2022-10-04T02:38:48.296Z,99.78
2022-10-04T02:41:29.751Z,98.75
2022-10-04T02:44:05.893Z,98.64
2022-10-04T02:46:39.494Z,98.69
2022-10-04T02:49:19.140Z,99.23
2022-10-04T02:51:54.383Z,99.92
2022-10-04T02:54:33.739Z,99.45
2022-10-04T02:57:06.520Z,99.91
2022-10-04T02:59:36.798Z,99.81
2022-10-04T03:02:29.068Z,99.80
2022-10-04T03:05:07.584Z,100.00
2022-10-04T03:07:38.972Z,100.00
2022-10-04T03:10:12.076Z,100.00
2022-10-04T03:12:45.153Z,100.00
2022-10-04T03:15:15.690Z,100.00
2022-10-04T03:17:46.897Z,100.00
2022-10-04T03:20:21.303Z,100.00
2022-10-04T03:22:56.065Z,100.00
2022-10-04T03:25:31.595Z,100.00
2022-10-04T03:28:05.784Z,100.00
2022-10-04T03:30:37.297Z,100.00
2022-10-04T03:33:08.238Z,100.00
2022-10-04T03:35:40.610Z,100.00
2022-10-04T03:38:14.147Z,100.00
2022-10-04T03:40:51.699Z,100.00
2022-10-04T03:43:27.495Z,100.00
2022-10-04T03:45:58.434Z,100.00
2022-10-04T03:48:37.979Z,100.00
2022-10-04T03:51:10.544Z,100.00
2022-10-04T03:53:43.431Z,100.00
2022-10-04T03:56:16.058Z,100.00
2022-10-04T03:58:49.275Z,100.00
2022-10-04T04:01:29.549Z,100.00
2022-10-04T04:04:05.686Z,100.00
2022-10-04T04:06:43.241Z,100.00
2022-10-04T04:09:23.991Z,100.00
2022-10-04T04:11:57.874Z,100.00
2022-10-04T04:14:31.045Z,100.00
2022-10-04T04:17:21.461Z,100.00
2022-10-04T04:19:51.261Z,100.00
2022-10-04T04:22:21.910Z,100.00
2022-10-04T04:24:52.429Z,100.00
2022-10-04T04:27:29.016Z,100.00
2022-10-04T04:30:04.156Z,100.00
2022-10-04T04:32:40.274Z,100.00
2022-10-04T04:35:25.114Z,100.00
2022-10-04T04:38:24.297Z,100.00
2022-10-04T04:40:55.799Z,100.00
2022-10-04T04:43:29.427Z,100.00
2022-10-04T04:46:26.210Z,100.00
2022-10-04T04:48:57.198Z,100.00
2022-10-04T04:51:27.790Z,100.00
2022-10-04T04:53:59.304Z,100.00
2022-10-04T04:56:32.952Z,100.00
2022-10-04T04:59:06.629Z,100.00
2022-10-04T05:01:45.000Z,100.00
2022-10-04T05:04:21.386Z,100.00
2022-10-04T05:07:02.263Z,100.00
2022-10-04T05:09:34.461Z,100.00
2022-10-04T05:12:11.308Z,98.92
2022-10-04T05:14:43.800Z,99.58
2022-10-04T05:17:23.034Z,99.44
2022-10-04T05:19:54.101Z,99.32
2022-10-04T05:22:26.883Z,98.93
2022-10-04T05:25:00.099Z,98.52
2022-10-04T05:27:33.371Z,97.73
2022-10-04T05:30:09.649Z,97.18
2022-10-04T05:32:51.460Z,96.47
2022-10-04T05:35:23.476Z,96.55
2022-10-04T05:38:05.123Z,95.78
2022-10-04T05:40:46.414Z,95.85
2022-10-04T05:43:34.784Z,94.91
2022-10-04T05:46:20.739Z,95.62
2022-10-04T05:48:56.952Z,96.00
2022-10-04T05:51:30.580Z,96.46
2022-10-04T05:54:02.802Z,96.38
2022-10-04T05:57:11.122Z,94.87
2022-10-04T06:00:03.351Z,95.58
2022-10-04T06:03:14.628Z,95.08
2022-10-04T06:05:52.787Z,96.28
2022-10-04T06:08:33.955Z,96.74
2022-10-04T06:11:17.662Z,97.70
2022-10-04T06:14:03.226Z,97.52
2022-10-04T06:16:56.610Z,96.81
2022-10-04T06:19:48.252Z,97.21
2022-10-04T06:22:23.385Z,97.13
2022-10-04T06:24:59.671Z,96.63
2022-10-04T06:27:36.074Z,96.51
2022-10-04T06:30:09.863Z,96.89
2022-10-04T06:32:56.251Z,97.11
2022-10-04T06:35:53.139Z,98.63
2022-10-04T06:38:50.958Z,100.00
2022-10-04T06:42:02.043Z,100.00
2022-10-04T06:44:51.449Z,100.00
2022-10-04T06:47:34.374Z,100.00
2022-10-04T06:50:22.827Z,100.00
2022-10-04T06:53:16.630Z,100.00
2022-10-04T06:56:22.073Z,100.00
2022-10-04T06:59:25.407Z,100.00
2022-10-04T07:02:00.039Z,100.00
2022-10-04T07:05:06.323Z,100.00
2022-10-04T07:07:38.803Z,100.00
2022-10-04T07:10:24.508Z,100.00
2022-10-04T07:13:07.289Z,100.00
2022-10-04T07:15:48.078Z,100.00
2022-10-04T07:18:26.973Z,100.00
2022-10-04T07:21:07.864Z,99.82
2022-10-04T07:23:43.113Z,100.00
2022-10-04T07:26:23.985Z,100.00
2022-10-04T07:29:09.454Z,100.00
2022-10-04T07:31:45.515Z,99.99
2022-10-04T07:34:21.088Z,98.86
2022-10-04T07:36:55.844Z,98.11
2022-10-04T07:39:30.725Z,98.87
2022-10-04T07:42:09.951Z,99.95
2022-10-04T07:44:43.604Z,99.80
2022-10-04T07:47:22.348Z,99.17
2022-10-04T07:49:54.075Z,99.51
2022-10-04T07:52:40.925Z,99.42
2022-10-04T07:55:21.450Z,99.30
2022-10-04T07:58:00.921Z,98.38
2022-10-04T08:00:39.623Z,97.44
2022-10-04T08:03:35.019Z,97.32
2022-10-04T08:06:17.605Z,97.86
2022-10-04T08:09:06.259Z,97.88
2022-10-04T08:11:50.150Z,97.93
2022-10-04T08:14:30.382Z,97.06
2022-10-04T08:17:20.017Z,95.76
2022-10-04T08:20:05.118Z,95.85
2022-10-04T08:22:45.716Z,97.16
2022-10-04T08:25:24.758Z,96.89
2022-10-04T08:28:18.669Z,96.11
2022-10-04T08:31:09.933Z,96.30
2022-10-04T08:33:59.169Z,96.38
2022-10-04T08:36:47.366Z,96.15
2022-10-04T08:39:44.756Z,96.64
2022-10-04T08:42:57.414Z,96.48
2022-10-04T08:46:10.063Z,96.85
2022-10-04T08:49:29.609Z,96.88
2022-10-04T08:52:32.049Z,96.65
2022-10-04T08:55:32.294Z,94.88
2022-10-04T08:58:18.453Z,94.85
2022-10-04T09:01:19.939Z,93.94
2022-10-04T09:04:32.014Z,93.63
2022-10-04T09:07:16.587Z,92.81
2022-10-04T09:10:24.229Z,91.78
2022-10-04T09:13:15.163Z,91.16
2022-10-04T09:15:56.684Z,90.18
2022-10-04T09:18:55.023Z,90.07
2022-10-04T09:21:38.238Z,90.27
2022-10-04T09:24:33.478Z,90.13
2022-10-04T09:27:43.274Z,90.42
2022-10-04T09:30:22.468Z,89.84
2022-10-04T09:33:18.040Z,88.13
2022-10-04T09:36:15.496Z,88.27
2022-10-04T09:39:31.178Z,88.06
2022-10-04T09:42:33.676Z,87.49
2022-10-04T09:45:28.055Z,86.06
2022-10-04T09:48:11.815Z,87.04
2022-10-04T09:51:11.356Z,84.80
2022-10-04T09:54:02.907Z,85.98
2022-10-04T09:56:53.294Z,84.93
2022-10-04T09:59:53.223Z,82.62
2022-10-04T10:02:59.394Z,83.56
2022-10-04T10:05:58.360Z,84.62
2022-10-04T10:08:37.899Z,84.75
2022-10-04T10:11:31.601Z,83.26
2022-10-04T10:14:38.446Z,81.97
2022-10-04T10:17:18.482Z,82.10
2022-10-04T10:20:16.773Z,80.85
2022-10-04T10:23:09.255Z,81.23
2022-10-04T10:25:53.557Z,80.83
2022-10-04T10:28:43.435Z,81.32
2022-10-04T10:31:31.369Z,81.71
2022-10-04T10:34:33.048Z,81.45
2022-10-04T10:37:15.536Z,80.41
2022-10-04T10:40:28.921Z,81.29
2022-10-04T10:43:22.524Z,81.44
2022-10-04T10:46:07.308Z,80.73
2022-10-04T10:48:55.423Z,79.35
2022-10-04T10:51:54.211Z,81.58
2022-10-04T10:54:52.635Z,82.35
2022-10-04T10:57:47.786Z,80.65
2022-10-04T11:00:24.128Z,80.34
2022-10-04T11:03:22.994Z,80.46
2022-10-04T11:06:38.915Z,79.40
2022-10-04T11:09:41.371Z,76.71
2022-10-04T11:12:55.391Z,75.28
2022-10-04T11:15:44.582Z,76.20
2022-10-04T11:18:45.321Z,75.55
2022-10-04T11:21:54.357Z,75.54
2022-10-04T11:24:45.066Z,74.33
2022-10-04T11:27:28.610Z,74.94
2022-10-04T11:30:17.331Z,73.13
2022-10-04T11:33:28.984Z,74.30
2022-10-04T11:36:25.978Z,74.88
2022-10-04T11:39:50.167Z,74.94
2022-10-04T11:42:38.404Z,75.00
2022-10-04T11:45:44.010Z,74.19
2022-10-04T11:48:32.292Z,73.74
2022-10-04T11:51:20.941Z,75.28
2022-10-04T11:54:18.170Z,72.89
2022-10-04T11:57:12.280Z,72.77
2022-10-04T11:59:52.395Z,73.50
2022-10-04T12:03:09.434Z,72.53
2022-10-04T12:06:11.150Z,73.68
2022-10-04T12:08:55.946Z,73.26
2022-10-04T12:12:10.866Z,72.01
2022-10-04T12:14:54.178Z,73.17
2022-10-04T12:17:55.792Z,72.99
2022-10-04T12:20:56.919Z,72.76
2022-10-04T12:23:57.374Z,72.67
2022-10-04T12:26:57.667Z,73.69
2022-10-04T12:30:03.146Z,72.66
2022-10-04T12:32:39.335Z,72.13
2022-10-04T12:35:23.177Z,72.29
2022-10-04T12:38:33.570Z,71.56
2022-10-04T12:41:13.739Z,72.43
2022-10-04T12:43:57.296Z,71.48
2022-10-04T12:46:40.969Z,71.81
2022-10-04T12:49:25.854Z,72.08
2022-10-04T12:52:01.855Z,72.14
2022-10-04T12:54:47.509Z,71.88
2022-10-04T12:57:31.399Z,71.32
2022-10-04T13:00:07.980Z,70.73
2022-10-04T13:03:05.209Z,69.70
2022-10-04T13:05:44.058Z,71.28
2022-10-04T13:08:25.158Z,70.72
2022-10-04T13:11:11.719Z,70.76
2022-10-04T13:14:01.554Z,69.86
2022-10-04T13:19:41.392Z,70.50
2022-10-04T13:22:55.324Z,69.66
2022-10-04T13:25:47.083Z,69.73
2022-10-04T13:28:32.041Z,69.32
2022-10-04T13:31:07.090Z,69.83
2022-10-04T13:33:46.530Z,70.05
2022-10-04T13:36:26.891Z,68.77
2022-10-04T13:39:24.940Z,68.88
2022-10-04T13:42:12.593Z,70.26
2022-10-04T13:44:58.956Z,70.37
2022-10-04T13:47:49.178Z,70.06
2022-10-04T13:50:44.135Z,69.40
2022-10-04T13:53:49.561Z,69.17
2022-10-04T13:56:49.462Z,69.04
2022-10-04T13:59:34.598Z,69.69
2022-10-04T14:02:47.808Z,69.47
2022-10-04T14:05:56.403Z,68.55
2022-10-04T14:08:54.784Z,69.26
2022-10-04T14:11:46.256Z,69.04
2022-10-04T14:14:43.007Z,69.01
2022-10-04T14:17:52.961Z,69.00
2022-10-04T14:20:58.086Z,70.34
2022-10-04T14:24:02.758Z,69.81
2022-10-04T14:27:04.473Z,69.68
2022-10-04T14:30:08.077Z,68.83
2022-10-04T14:33:10.590Z,66.55
2022-10-04T14:35:48.005Z,65.69
2022-10-04T14:38:57.589Z,65.08
2022-10-04T14:41:59.327Z,64.97
2022-10-04T14:45:04.830Z,65.05
2022-10-04T14:48:04.549Z,65.91
2022-10-04T14:50:48.142Z,64.95
2022-10-04T14:53:27.655Z,65.70
2022-10-04T14:56:14.716Z,64.83
2022-10-04T14:59:01.663Z,64.26
2022-10-04T15:01:36.195Z,65.77
2022-10-04T15:04:19.627Z,65.11
2022-10-04T15:06:53.535Z,64.23
2022-10-04T15:09:34.159Z,63.07
2022-10-04T15:12:52.050Z,64.62
2022-10-04T15:15:36.573Z,64.48
2022-10-04T15:18:26.388Z,64.27
2022-10-04T15:21:01.643Z,65.67
2022-10-04T15:23:38.819Z,65.41
2022-10-04T15:26:26.401Z,65.12
2022-10-04T15:29:07.891Z,64.26
2022-10-04T15:31:52.858Z,63.71
2022-10-04T15:34:38.820Z,64.31
2022-10-04T15:37:25.445Z,64.71
2022-10-04T15:40:27.227Z,65.14
2022-10-04T15:43:12.359Z,65.00
2022-10-04T15:46:02.892Z,65.78
2022-10-04T15:48:51.878Z,66.37
2022-10-04T15:51:46.351Z,65.58
2022-10-04T15:54:44.719Z,66.75
2022-10-04T15:57:32.792Z,66.88
2022-10-04T16:00:15.431Z,67.06
2022-10-04T16:03:02.001Z,67.87
2022-10-04T16:05:40.188Z,68.35
2022-10-04T16:08:31.920Z,68.99
2022-10-04T16:11:27.691Z,69.67
2022-10-04T16:14:17.314Z,69.61
2022-10-04T16:17:14.485Z,69.60
2022-10-04T16:20:01.134Z,70.03
2022-10-04T16:22:32.923Z,70.50
2022-10-04T16:25:41.788Z,70.06
2022-10-04T16:28:25.827Z,70.70
2022-10-04T16:31:30.264Z,70.88
2022-10-04T16:34:07.208Z,71.59
2022-10-04T16:36:49.892Z,72.28
2022-10-04T16:39:49.721Z,72.49
2022-10-04T16:42:25.983Z,73.15
2022-10-04T16:45:02.745Z,73.42
2022-10-04T16:47:38.435Z,74.08
2022-10-04T16:50:14.109Z,74.66
2022-10-04T16:53:05.515Z,74.35
2022-10-04T16:55:53.916Z,74.57
2022-10-04T16:58:54.551Z,74.53
2022-10-04T17:02:00.374Z,73.44
2022-10-04T17:05:01.980Z,73.71
2022-10-04T17:07:45.709Z,74.84
2022-10-04T17:10:34.974Z,76.04
2022-10-04T17:13:23.591Z,77.08
2022-10-04T17:16:05.464Z,77.97
2022-10-04T17:18:47.156Z,78.00
2022-10-04T17:21:36.025Z,77.73
2022-10-04T17:24:22.702Z,78.49
2022-10-04T17:27:07.056Z,79.48
2022-10-04T17:29:51.635Z,80.00
2022-10-04T17:32:30.223Z,80.75
2022-10-04T17:35:16.617Z,80.64
2022-10-04T17:38:00.947Z,80.77
2022-10-04T17:40:46.167Z,80.82
2022-10-04T17:43:25.791Z,81.06
2022-10-04T17:46:09.716Z,81.42
2022-10-04T17:49:00.366Z,82.03
2022-10-04T17:51:56.656Z,82.52
2022-10-04T17:54:48.219Z,82.64
2022-10-04T17:57:30.957Z,82.32
2022-10-04T18:00:11.491Z,83.27
2022-10-04T18:03:19.408Z,83.05
2022-10-04T18:05:55.442Z,84.48
2022-10-04T18:08:44.757Z,85.11
2022-10-04T18:11:29.620Z,85.70
2022-10-04T18:14:05.358Z,85.33
2022-10-04T18:16:50.098Z,84.67
2022-10-04T18:19:40.188Z,84.24
2022-10-04T18:22:16.845Z,84.22
2022-10-04T18:24:48.308Z,84.48
2022-10-04T18:27:24.508Z,83.92
2022-10-04T18:30:10.628Z,83.79
2022-10-04T18:32:41.964Z,83.74
2022-10-04T18:35:26.741Z,84.59
2022-10-04T18:37:58.180Z,85.52
2022-10-04T18:40:34.895Z,85.54
2022-10-04T18:43:27.910Z,85.62
2022-10-04T18:46:04.494Z,86.09
2022-10-04T18:48:41.999Z,85.91
2022-10-04T18:51:27.097Z,85.94
2022-10-04T18:54:12.172Z,86.96
2022-10-04T18:56:53.025Z,86.53
2022-10-04T18:59:49.850Z,86.67
2022-10-04T19:02:31.379Z,87.18
2022-10-04T19:05:15.726Z,87.40
2022-10-04T19:07:52.810Z,87.05
2022-10-04T19:10:34.704Z,86.65
2022-10-04T19:13:23.279Z,87.34
2022-10-04T19:16:23.554Z,87.25
2022-10-04T19:19:04.319Z,88.53
2022-10-04T19:21:46.406Z,88.89
2022-10-04T19:24:37.265Z,89.58
2022-10-04T19:27:14.024Z,90.50
2022-10-04T19:29:59.632Z,89.76
2022-10-04T19:32:45.256Z,90.11
2022-10-04T19:35:29.096Z,90.23
2022-10-04T19:38:08.867Z,90.47
2022-10-04T19:40:48.622Z,90.46
2022-10-04T19:43:25.434Z,89.77
2022-10-04T19:46:11.791Z,89.84
2022-10-04T19:48:50.020Z,90.07
2022-10-04T19:51:29.935Z,90.22
2022-10-04T19:54:06.472Z,89.36
2022-10-04T19:56:42.785Z,90.08
2022-10-04T19:59:22.026Z,90.34
2022-10-04T20:01:53.129Z,90.90
2022-10-04T20:04:39.039Z,90.80
2022-10-04T20:07:23.654Z,90.75
2022-10-04T20:09:57.338Z,91.98
2022-10-04T20:12:40.236Z,92.23
2022-10-04T20:15:27.752Z,92.24
2022-10-04T20:17:59.040Z,93.21
2022-10-04T20:21:11.386Z,91.92
2022-10-04T20:23:56.680Z,91.94
2022-10-04T20:27:03.453Z,92.10
2022-10-04T20:30:08.835Z,93.01
2022-10-04T20:33:01.164Z,93.62
2022-10-04T20:36:09.764Z,93.25
2022-10-04T20:38:59.465Z,92.90
2022-10-04T20:41:59.121Z,91.97
2022-10-04T20:44:54.327Z,91.35
2022-10-04T20:47:40.925Z,91.62
2022-10-04T20:50:31.321Z,91.49
2022-10-04T20:53:06.095Z,92.30
2022-10-04T20:55:40.351Z,91.74
2022-10-04T20:58:28.427Z,90.94
2022-10-04T21:01:02.684Z,91.44
2022-10-04T21:03:33.578Z,91.89
2022-10-04T21:06:06.392Z,91.33
2022-10-04T21:08:37.648Z,90.83
2022-10-04T21:11:18.302Z,89.83
2022-10-04T21:13:56.516Z,89.69
2022-10-04T21:16:45.791Z,89.71
2022-10-04T21:19:47.467Z,90.24
2022-10-04T21:22:39.580Z,90.64
2022-10-04T21:25:32.110Z,90.79
2022-10-04T21:28:32.018Z,90.51
2022-10-04T21:31:06.605Z,90.71
2022-10-04T21:33:37.542Z,90.59
2022-10-04T21:36:08.743Z,89.85
2022-10-04T21:38:38.991Z,89.81
2022-10-04T21:41:09.260Z,90.41
2022-10-04T21:43:38.991Z,90.14
2022-10-04T21:46:12.249Z,90.06
2022-10-04T21:48:44.056Z,90.27
2022-10-04T21:51:13.767Z,89.87
2022-10-04T21:53:43.510Z,89.60
2022-10-04T21:56:13.230Z,89.65
2022-10-04T21:58:42.908Z,89.58
2022-10-04T22:01:15.438Z,89.78
2022-10-04T22:03:45.198Z,89.52
2022-10-04T22:06:15.023Z,89.63
2022-10-04T22:08:45.540Z,89.40
2022-10-04T22:11:15.866Z,89.13
2022-10-04T22:13:46.824Z,89.09
2022-10-04T22:16:19.185Z,89.15
2022-10-04T22:18:48.948Z,89.42
2022-10-04T22:21:18.656Z,90.29
2022-10-04T22:23:48.390Z,90.65
2022-10-04T22:26:19.860Z,90.45
2022-10-04T22:28:51.801Z,89.83
2022-10-04T22:31:28.178Z,89.79
2022-10-04T22:33:59.015Z,89.60
2022-10-04T22:36:40.118Z,89.48
2022-10-04T22:39:16.582Z,90.04
2022-10-04T22:41:48.832Z,90.12
2022-10-04T22:44:21.840Z,89.74
2022-10-04T22:46:55.620Z,89.49
2022-10-04T22:49:28.170Z,89.93
2022-10-04T22:52:00.139Z,89.52
2022-10-04T22:54:33.227Z,88.82
2022-10-04T22:57:03.059Z,88.51
2022-10-04T22:59:37.587Z,88.06
2022-10-04T23:02:16.130Z,87.71
2022-10-04T23:04:48.232Z,87.79
2022-10-04T23:07:18.024Z,87.56
2022-10-04T23:09:47.758Z,87.55
2022-10-04T23:12:17.707Z,87.85
2022-10-04T23:14:47.398Z,87.62
2022-10-04T23:17:26.167Z,88.96
2022-10-04T23:19:59.443Z,90.37
2022-10-04T23:22:31.630Z,90.63
2022-10-04T23:25:01.773Z,90.06
2022-10-04T23:27:32.013Z,90.79
2022-10-04T23:30:05.405Z,91.33
2022-10-04T23:32:37.774Z,91.58
2022-10-04T23:35:16.327Z,91.73
2022-10-04T23:37:46.067Z,92.49
2022-10-04T23:40:20.468Z,91.68
2022-10-04T23:42:53.715Z,91.48
2022-10-04T23:45:25.576Z,90.94
2022-10-04T23:48:01.035Z,90.59
2022-10-04T23:50:33.889Z,91.03
2022-10-04T23:53:06.582Z,90.71
2022-10-04T23:55:38.889Z,91.74
2022-10-04T23:58:17.344Z,92.67
